Time;durP1;ratioP1;P1;durP2;ratioP2;P2;SDS_P1;SDS_P2;PMS_P1;PMS_P2;Temp;Humidity;BMP_temperature;BMP_pressure;BME280_temperature;BME280_humidity;BME280_pressure;Samples;Min_cycle;Max_cycle;Signal;HPM_P1;HPM_P2
2022/01/21 08:52:32;;;;;;;26.80;12.73;;;-0.70;93.60;;;;;;5069443;28;20441;-53
2022/01/21 08:54:59;;;;;;;23.58;11.40;;;-0.80;93.60;;;;;;5053157;28;20455;-55
2022/01/21 08:57:26;;;;;;;19.77;10.98;;;-0.70;93.60;;;;;;5049999;28;20052;-51
2022/01/21 08:59:53;;;;;;;20.40;10.98;;;-0.60;93.50;;;;;;5050418;28;20068;-53
2022/01/21 09:02:20;;;;;;;26.10;10.50;;;-0.50;93.20;;;;;;5050269;28;20045;-49
2022/01/21 09:04:47;;;;;;;19.67;9.95;;;-0.50;93.00;;;;;;5050173;28;20547;-50
2022/01/21 09:07:18;;;;;;;18.27;9.32;;;-0.40;92.90;;;;;;5050171;28;20053;-49
2022/01/21 09:09:45;;;;;;;19.52;9.77;;;-0.30;92.70;;;;;;5049951;28;20045;-51
2022/01/21 09:12:12;;;;;;;16.88;9.38;;;-0.20;92.50;;;;;;5049867;28;20116;-47
2022/01/21 09:14:39;;;;;;;16.80;9.35;;;-0.10;92.40;;;;;;5054490;28;20036;-48
2022/01/21 09:17:05;;;;;;;18.30;9.55;;;0.00;92.40;;;;;;5048773;28;20068;-54
2022/01/21 09:19:32;;;;;;;19.65;9.85;;;0.10;92.30;;;;;;5049905;28;20047;-51
2022/01/21 09:22:02;;;;;;;24.00;9.60;;;0.10;92.20;;;;;;5048530;28;20041;-51
2022/01/21 09:24:29;;;;;;;16.65;9.32;;;0.20;92.00;;;;;;5049501;28;20041;-50
2022/01/21 09:26:56;;;;;;;14.85;9.75;;;0.30;91.90;;;;;;5049455;28;20060;-53
2022/01/21 09:29:23;;;;;;;15.40;9.43;;;0.30;91.80;;;;;;5049438;28;20120;-54
2022/01/21 09:31:50;;;;;;;21.90;11.27;;;0.40;91.70;;;;;;5049439;28;20061;-55
2022/01/21 09:34:21;;;;;;;22.58;9.90;;;0.40;91.70;;;;;;5047934;28;20049;-51
2022/01/21 09:36:48;;;;;;;22.20;10.30;;;0.50;91.50;;;;;;5047989;28;20426;-51
2022/01/21 09:39:15;;;;;;;17.52;9.77;;;0.50;91.40;;;;;;5047798;28;20384;-53
2022/01/21 09:41:43;;;;;;;22.23;10.63;;;0.60;91.40;;;;;;5047679;28;20397;-53
2022/01/21 09:44:11;;;;;;;20.23;9.43;;;0.70;91.30;;;;;;5049613;28;20083;-52
2022/01/21 09:46:42;;;;;;;18.80;10.40;;;0.80;91.10;;;;;;5047655;28;20540;-55
2022/01/21 09:49:25;;;;;;;17.17;9.57;;;0.80;91.10;;;;;;5047971;28;20073;-52
2022/01/21 09:51:53;;;;;;;16.35;9.75;;;0.90;90.90;;;;;;5048599;28;20143;-55
2022/01/21 09:54:20;;;;;;;17.85;9.40;;;0.90;90.80;;;;;;5047574;28;20052;-52
2022/01/21 09:56:47;;;;;;;17.80;9.50;;;1.00;90.80;;;;;;5048234;28;20056;-49
2022/01/21 09:59:13;;;;;;;19.10;10.15;;;1.10;90.60;;;;;;5047639;28;20583;-55
2022/01/21 10:01:40;;;;;;;19.42;9.70;;;1.10;90.50;;;;;;5047989;28;20052;-49
2022/01/21 10:04:07;;;;;;;22.70;11.10;;;1.10;90.20;;;;;;5034846;28;20045;-50
2022/01/21 10:06:34;;;;;;;19.60;11.18;;;1.20;90.30;;;;;;5035317;28;20049;-53
2022/01/21 10:09:01;;;;;;;18.77;10.32;;;1.30;90.30;;;;;;5035194;28;20034;-54
2022/01/21 10:11:27;;;;;;;23.67;10.68;;;1.30;90.30;;;;;;5035322;28;20041;-51
2022/01/21 10:13:55;;;;;;;19.25;10.23;;;1.40;90.00;;;;;;5037694;28;20048;-50
2022/01/21 10:16:22;;;;;;;20.08;9.32;;;1.50;89.60;;;;;;5036243;28;20099;-53
2022/01/21 10:18:49;;;;;;;25.83;10.93;;;1.50;88.90;;;;;;5035006;28;20068;-50
2022/01/21 10:21:16;;;;;;;18.65;9.10;;;1.60;89.30;;;;;;5035086;28;20033;-51
2022/01/21 10:23:43;;;;;;;13.85;9.30;;;1.60;88.50;;;;;;5035066;28;20041;-52
2022/01/21 10:26:09;;;;;;;22.60;10.05;;;1.70;88.30;;;;;;5035097;28;20038;-55
2022/01/21 10:28:36;;;;;;;16.77;9.30;;;1.80;88.50;;;;;;5034969;28;20091;-55
2022/01/21 10:31:03;;;;;;;18.45;9.23;;;1.90;88.10;;;;;;5034746;28;20091;-53
2022/01/21 10:33:30;;;;;;;17.88;9.93;;;2.10;87.60;;;;;;5034841;28;20041;-51
2022/01/21 10:35:56;;;;;;;18.85;9.43;;;2.20;87.50;;;;;;5033677;28;20053;-51
2022/01/21 10:38:28;;;;;;;18.35;9.70;;;2.40;86.60;;;;;;5035092;28;20052;-54
2022/01/21 10:40:55;;;;;;;17.48;9.73;;;2.50;86.20;;;;;;5034849;28;20128;-54
2022/01/21 10:43:21;;;;;;;15.02;9.07;;;2.60;85.60;;;;;;5034907;28;20034;-54
2022/01/21 10:45:48;;;;;;;19.58;9.50;;;2.80;85.30;;;;;;5034782;28;20045;-51
2022/01/21 10:48:16;;;;;;;18.50;9.23;;;2.90;84.70;;;;;;5034830;28;20124;-53
2022/01/21 10:50:43;;;;;;;15.90;9.10;;;2.90;84.20;;;;;;5034530;28;20076;-53
2022/01/21 10:53:09;;;;;;;16.88;9.45;;;3.00;83.90;;;;;;5034739;28;20044;-53
2022/01/21 10:55:37;;;;;;;26.00;10.27;;;3.00;84.00;;;;;;5034505;28;20049;-51
2022/01/21 10:58:04;;;;;;;17.60;9.27;;;3.00;83.90;;;;;;5034556;28;20045;-52
2022/01/21 11:00:31;;;;;;;22.40;9.43;;;3.10;83.90;;;;;;5035067;28;20045;-57
2022/01/21 11:02:58;;;;;;;19.45;9.48;;;3.10;83.70;;;;;;5034523;28;20111;-51
2022/01/21 11:05:31;;;;;;;20.17;9.55;;;3.10;83.60;;;;;;5034435;28;20125;-50
2022/01/21 11:08:02;;;;;;;20.70;9.63;;;3.20;83.00;;;;;;5034352;28;20133;-54
2022/01/21 11:10:29;;;;;;;20.67;8.90;;;3.20;83.30;;;;;;5034372;28;20461;-52
2022/01/21 11:12:55;;;;;;;26.88;9.80;;;3.20;82.90;;;;;;5033942;28;20519;-51
2022/01/21 11:15:25;;;;;;;20.45;9.45;;;3.30;83.10;;;;;;5035664;28;20078;-53
2022/01/21 11:17:51;;;;;;;23.73;9.77;;;3.30;81.90;;;;;;5033893;28;20045;-49
2022/01/21 11:20:21;;;;;;;19.08;9.45;;;3.30;82.80;;;;;;5033953;28;20045;-50
2022/01/21 11:22:47;;;;;;;21.58;9.25;;;3.40;83.10;;;;;;5016057;28;20038;-55
2022/01/21 11:25:14;;;;;;;20.98;9.43;;;3.40;82.20;;;;;;5033821;28;20042;-52
2022/01/21 11:27:41;;;;;;;17.88;9.13;;;3.50;82.10;;;;;;5033743;28;20041;-52
2022/01/21 11:30:08;;;;;;;20.30;9.35;;;3.50;82.30;;;;;;5033854;28;20037;-55
2022/01/21 11:32:34;;;;;;;19.17;9.15;;;3.50;82.10;;;;;;5033717;28;20509;-54
2022/01/21 11:35:01;;;;;;;20.27;9.45;;;3.50;82.30;;;;;;5034088;28;20061;-53
2022/01/21 11:37:28;;;;;;;18.65;9.35;;;3.50;81.80;;;;;;5033865;28;20056;-54
2022/01/21 11:39:55;;;;;;;20.30;9.85;;;3.50;81.70;;;;;;5033605;28;20412;-55
2022/01/21 11:42:22;;;;;;;20.95;9.85;;;3.50;81.90;;;;;;5033344;28;20037;-52
2022/01/21 11:44:52;;;;;;;25.73;10.10;;;3.50;82.40;;;;;;5038364;28;20033;-53
2022/01/21 11:47:29;;;;;;;25.80;9.75;;;3.50;82.60;;;;;;5033172;28;20493;-53
2022/01/21 11:49:56;;;;;;;20.58;10.13;;;3.60;82.60;;;;;;5027044;28;20045;-54
2022/01/21 11:52:23;;;;;;;23.13;9.85;;;3.50;82.30;;;;;;5025061;28;20148;-51
2022/01/21 11:54:50;;;;;;;23.40;10.35;;;3.60;82.20;;;;;;5026650;28;20053;-52
2022/01/21 11:57:17;;;;;;;28.83;10.85;;;3.60;82.40;;;;;;5033628;28;20052;-52
2022/01/21 12:00:02;;;;;;;22.90;9.40;;;3.60;82.10;;;;;;5032872;28;20052;-50
2022/01/21 12:02:30;;;;;;;23.13;9.77;;;3.60;82.70;;;;;;5032955;28;20132;-50
2022/01/21 12:04:57;;;;;;;14.93;9.27;;;3.60;81.90;;;;;;5031453;28;20037;-50
2022/01/21 12:07:24;;;;;;;19.27;9.43;;;3.60;81.90;;;;;;5032873;28;20048;-48
2022/01/21 12:09:51;;;;;;;22.40;10.02;;;3.70;81.60;;;;;;5032923;28;20041;-50
2022/01/21 12:12:17;;;;;;;23.13;9.63;;;3.70;81.80;;;;;;5033266;28;20423;-51
2022/01/21 12:14:50;;;;;;;20.77;10.05;;;3.70;82.10;;;;;;5033740;28;20112;-49
2022/01/21 12:17:22;;;;;;;19.35;8.70;;;3.80;82.20;;;;;;5029187;28;20064;-49
2022/01/21 12:19:57;;;;;;;20.95;8.57;;;3.80;81.60;;;;;;5032629;28;20568;-53
2022/01/21 12:22:23;;;;;;;19.45;8.88;;;3.80;81.50;;;;;;5033075;28;20051;-54
2022/01/21 12:24:51;;;;;;;22.00;10.40;;;3.80;81.40;;;;;;5032787;28;20041;-50
2022/01/21 12:27:18;;;;;;;15.15;8.68;;;3.90;81.70;;;;;;5032548;28;20398;-51
2022/01/21 12:29:45;;;;;;;17.25;7.80;;;3.90;81.40;;;;;;5033081;28;20053;-52
2022/01/21 12:32:22;;;;;;;22.98;9.00;;;3.80;81.70;;;;;;5032787;28;20041;-53
2022/01/21 12:35:08;;;;;;;19.58;7.50;;;3.90;81.70;;;;;;5033281;28;20057;-55
2022/01/21 12:40:31;;;;;;;17.88;8.95;;;3.90;81.20;;;;;;5035964;28;20523;-51
2022/01/21 12:42:58;;;;;;;16.55;8.32;;;3.90;81.00;;;;;;5031059;28;20415;-48
2022/01/21 12:45:25;;;;;;;17.33;8.38;;;3.90;80.70;;;;;;5035733;28;20046;-49
2022/01/21 12:47:56;;;;;;;18.27;8.40;;;3.90;80.60;;;;;;5032629;28;20159;-53
2022/01/21 12:50:49;;;;;;;21.05;8.23;;;3.90;81.30;;;;;;5032039;28;20059;-54
2022/01/21 12:53:33;;;;;;;17.92;7.82;;;3.90;80.50;;;;;;5031194;28;20049;-52
2022/01/21 12:56:03;;;;;;;16.23;7.25;;;3.90;80.20;;;;;;5032803;28;20433;-54
2022/01/21 12:58:29;;;;;;;15.68;7.57;;;4.00;80.60;;;;;;5032386;28;20037;-50
2022/01/21 13:00:56;;;;;;;21.13;8.90;;;4.00;80.70;;;;;;5032513;28;20415;-52
2022/01/21 13:03:23;;;;;;;20.75;8.55;;;4.10;81.50;;;;;;5030908;28;20041;-51
2022/01/21 13:05:52;;;;;;;17.00;8.32;;;4.10;81.10;;;;;;5032419;28;20033;-51
2022/01/21 13:08:18;;;;;;;21.60;7.88;;;4.10;80.40;;;;;;5032243;28;20133;-52
2022/01/21 13:10:45;;;;;;;21.05;7.53;;;4.20;80.30;;;;;;5031409;28;20073;-52
2022/01/21 13:15:39;;;;;;;17.08;8.50;;;4.20;80.10;;;;;;5038122;28;20042;-51
2022/01/21 13:18:05;;;;;;;17.02;6.93;;;4.20;80.20;;;;;;5032956;28;20045;-54
2022/01/21 13:20:32;;;;;;;17.55;8.75;;;4.20;80.20;;;;;;5033028;28;20091;-51
2022/01/21 13:22:59;;;;;;;21.23;7.65;;;4.20;79.80;;;;;;5031470;28;20048;-52
2022/01/21 13:25:26;;;;;;;21.42;10.50;;;4.20;80.20;;;;;;5032766;28;20490;-52
2022/01/21 13:27:53;;;;;;;20.85;10.00;;;4.20;80.00;;;;;;5032591;28;20034;-49
2022/01/21 13:30:20;;;;;;;21.88;9.98;;;4.30;80.30;;;;;;5032546;28;20046;-51
2022/01/21 13:32:47;;;;;;;21.33;9.38;;;4.30;80.20;;;;;;5032532;28;20041;-55
2022/01/21 13:35:14;;;;;;;21.13;8.23;;;4.30;80.30;;;;;;5031151;28;20081;-55
2022/01/21 13:37:40;;;;;;;19.52;7.03;;;4.30;79.90;;;;;;5033414;28;20037;-54
2022/01/21 13:40:08;;;;;;;19.58;7.47;;;4.30;80.00;;;;;;5036197;28;20124;-53
2022/01/21 13:42:35;;;;;;;18.13;7.72;;;4.40;80.20;;;;;;5035337;28;20053;-52
2022/01/21 13:45:04;;;;;;;23.90;7.35;;;4.40;79.80;;;;;;5035607;28;20033;-52
2022/01/21 13:47:31;;;;;;;21.40;8.00;;;4.40;80.20;;;;;;5034326;28;20045;-53
2022/01/21 13:49:59;;;;;;;15.38;6.70;;;4.40;80.00;;;;;;5035558;28;20065;-55
2022/01/21 13:52:26;;;;;;;22.35;7.25;;;4.50;80.00;;;;;;5035252;28;20057;-49
2022/01/21 13:54:52;;;;;;;20.50;7.82;;;4.40;79.80;;;;;;5034607;28;20041;-52
2022/01/21 13:57:19;;;;;;;18.25;7.18;;;4.40;79.60;;;;;;5033326;28;20128;-55
2022/01/21 13:59:46;;;;;;;16.00;7.35;;;4.40;79.40;;;;;;5034787;28;20124;-51
2022/01/21 14:02:13;;;;;;;15.88;7.55;;;4.40;79.70;;;;;;5032448;28;20037;-53
2022/01/21 14:04:40;;;;;;;18.60;7.65;;;4.40;79.70;;;;;;5035563;28;20037;-53
2022/01/21 14:07:07;;;;;;;13.88;6.25;;;4.50;79.30;;;;;;5035604;28;20064;-54
2022/01/21 14:09:33;;;;;;;20.30;7.25;;;4.50;79.80;;;;;;5035637;28;20125;-51
2022/01/21 14:12:00;;;;;;;18.80;7.13;;;4.50;79.50;;;;;;5035108;28;20401;-52
2022/01/21 14:14:27;;;;;;;22.02;7.13;;;4.50;79.80;;;;;;5039011;28;20053;-52
2022/01/21 14:16:54;;;;;;;18.15;6.70;;;4.50;79.90;;;;;;5035194;28;20053;-52
2022/01/21 14:19:22;;;;;;;12.27;6.00;;;4.50;80.30;;;;;;5035149;28;20080;-52
2022/01/21 14:21:50;;;;;;;18.33;6.72;;;4.50;80.10;;;;;;5035184;28;20111;-48
2022/01/21 14:24:16;;;;;;;19.48;7.15;;;4.50;80.30;;;;;;5035212;28;20042;-51
2022/01/21 14:26:44;;;;;;;19.02;6.90;;;4.50;80.60;;;;;;5034921;28;20444;-48
2022/01/21 14:29:16;;;;;;;13.73;7.03;;;4.50;80.90;;;;;;5035014;28;20412;-55
2022/01/21 14:31:43;;;;;;;18.30;6.72;;;4.50;80.90;;;;;;5035067;28;20040;-53
2022/01/21 14:34:11;;;;;;;13.07;6.65;;;4.50;81.50;;;;;;5034799;28;20448;-54
2022/01/21 14:36:38;;;;;;;16.42;7.47;;;4.50;81.40;;;;;;5034464;28;20079;-54
2022/01/21 14:39:04;;;;;;;19.08;7.28;;;4.40;81.30;;;;;;5034578;28;20055;-54
2022/01/21 14:41:31;;;;;;;17.75;8.00;;;4.50;81.80;;;;;;5034514;28;20041;-53
2022/01/21 14:44:18;;;;;;;18.15;6.57;;;4.50;81.50;;;;;;5040412;28;20433;-54
2022/01/21 14:46:45;;;;;;;18.08;6.85;;;4.50;81.50;;;;;;5034295;28;20042;-51
2022/01/21 14:49:12;;;;;;;16.85;6.43;;;4.50;81.80;;;;;;5034224;28;20543;-50
2022/01/21 14:51:46;;;;;;;13.85;6.68;;;4.50;82.10;;;;;;5033812;28;20103;-52
2022/01/21 14:54:12;;;;;;;15.75;5.85;;;4.60;82.50;;;;;;5034408;28;20038;-54
2022/01/21 14:56:41;;;;;;;16.58;6.05;;;4.60;82.50;;;;;;5034288;28;20041;-54
2022/01/21 14:59:07;;;;;;;14.63;5.80;;;4.60;82.60;;;;;;5028102;28;20120;-51
2022/01/21 15:01:34;;;;;;;16.73;6.57;;;4.60;82.30;;;;;;5034216;28;20052;-53
2022/01/21 15:04:01;;;;;;;21.75;7.07;;;4.50;82.50;;;;;;5032744;28;20441;-57
2022/01/21 15:06:28;;;;;;;17.80;6.18;;;4.60;82.10;;;;;;5024243;28;20052;-53
